This is the latest recevied weather packets stored in our database for station/object AC5CM. If no packets are shown the sender has not sent any weather packets the latest 10 day(s).
| Time | Temp. | Humidity | Pressure | Rain* | Wind** | Luminosity | Snow |
|---|---|---|---|---|---|---|---|
| 1777577143 | 32.22° C | 54% | 1010.1 hPa | 0 mm | - | - | - |
| 1777576839 | 32.22° C | 53% | 1010.2 hPa | 0 mm | - | - | - |
| 1777576235 | 32.78° C | 55% | 1010.1 hPa | 0 mm | - | - | - |
| 1777575931 | 32.22° C | 55% | 1010.4 hPa | 0 mm | - | - | - |
| 1777575020 | 32.22° C | 53% | 1010.6 hPa | 0 mm | - | - | - |
| 1777574716 | 31.67° C | 56% | 1010.4 hPa | 0 mm | - | - | - |
| 1777570765 | 30.56° C | 61% | 1011.3 hPa | 0 mm | - | - | - |
| 1777570460 | 31.11° C | 57% | 1011.2 hPa | 0 mm | - | - | - |
| 1777570156 | 31.11° C | 60% | 1011.1 hPa | 0 mm | - | - | - |
| 1777569853 | 30.56° C | 61% | 1011 hPa | 0 mm | - | - | - |
| 1777569549 | 31.11° C | 62% | 1010.9 hPa | 0 mm | - | - | - |
| 1777569245 | 31.11° C | 61% | 1011 hPa | 0 mm | - | - | - |
| 1777566821 | 29.44° C | 65% | 1011.7 hPa | 0 mm | - | - | - |
| 1777566216 | 30° C | 66% | 1011.8 hPa | 0 mm | - | - | - |
| 1777565913 | 29.44° C | 67% | 1011.8 hPa | 0 mm | - | - | - |
| 1777565001 | 28.89° C | 70% | 1011.8 hPa | 0 mm | - | - | - |
| 1777563481 | 27.78° C | 75% | 1012.1 hPa | 0 mm | - | - | - |
| 1777561969 | 27.78° C | 77% | 1011.7 hPa | 0 mm | - | - | - |
| 1777561666 | 27.22° C | 78% | 1011.7 hPa | 0 mm | - | - | - |
| 1777557419 | 24.44° C | 87% | 1011.5 hPa | 0 mm | - | - | - |
| 1777555903 | 23.89° C | 91% | 1011.3 hPa | 0 mm | - | - | - |
| 1777555296 | 23.33° C | 91% | 1011.3 hPa | 0 mm | - | - | - |
| 1777554992 | 23.33° C | 91% | 1011.1 hPa | 0 mm | - | - | - |
| 1777554386 | 22.78° C | 91% | 1011.2 hPa | 0 mm | - | - | - |
| 1777553172 | 22.78° C | 91% | 1011.7 hPa | 0 mm | - | - | - |
* Rain latest hour (hover to see other rain measurements)
** Current wind speed in m/s (hover to see current wind gust speed)